sensor_id;sensor_type;location;lat;lon;timestamp;P1;durP1;ratioP1;P2;durP2;ratioP2
26391;SDS011;14572;43.120;1.178;2023-11-19T00:00:53;2.63;;;1.50;;
26391;SDS011;14572;43.120;1.178;2023-11-19T00:03:20;8.55;;;1.75;;
26391;SDS011;14572;43.120;1.178;2023-11-19T00:05:47;6.53;;;2.53;;
26391;SDS011;14572;43.120;1.178;2023-11-19T00:08:17;7.10;;;2.25;;
26391;SDS011;14572;43.120;1.178;2023-11-19T00:10:44;8.10;;;3.00;;
26391;SDS011;14572;43.120;1.178;2023-11-19T00:13:12;4.03;;;2.10;;
26391;SDS011;14572;43.120;1.178;2023-11-19T00:15:39;8.27;;;2.58;;
26391;SDS011;14572;43.120;1.178;2023-11-19T00:18:06;4.65;;;1.98;;
26391;SDS011;14572;43.120;1.178;2023-11-19T00:20:33;4.80;;;1.80;;
26391;SDS011;14572;43.120;1.178;2023-11-19T00:23:00;4.05;;;1.88;;
26391;SDS011;14572;43.120;1.178;2023-11-19T00:25:29;4.22;;;1.80;;
26391;SDS011;14572;43.120;1.178;2023-11-19T00:27:56;3.50;;;1.75;;
26391;SDS011;14572;43.120;1.178;2023-11-19T00:30:23;2.67;;;1.88;;
26391;SDS011;14572;43.120;1.178;2023-11-19T00:32:50;6.10;;;2.28;;
26391;SDS011;14572;43.120;1.178;2023-11-19T00:35:17;3.28;;;1.98;;
26391;SDS011;14572;43.120;1.178;2023-11-19T00:37:44;3.88;;;1.70;;
26391;SDS011;14572;43.120;1.178;2023-11-19T00:40:12;5.15;;;1.70;;
26391;SDS011;14572;43.120;1.178;2023-11-19T00:42:42;4.43;;;1.73;;
26391;SDS011;14572;43.120;1.178;2023-11-19T00:45:09;6.13;;;1.75;;
26391;SDS011;14572;43.120;1.178;2023-11-19T00:47:38;2.47;;;1.65;;
26391;SDS011;14572;43.120;1.178;2023-11-19T00:50:05;7.65;;;1.70;;
26391;SDS011;14572;43.120;1.178;2023-11-19T00:52:35;6.18;;;1.50;;
26391;SDS011;14572;43.120;1.178;2023-11-19T00:55:02;2.80;;;1.67;;
26391;SDS011;14572;43.120;1.178;2023-11-19T00:57:30;3.30;;;1.45;;
26391;SDS011;14572;43.120;1.178;2023-11-19T00:59:59;4.40;;;1.50;;
26391;SDS011;14572;43.120;1.178;2023-11-19T01:02:26;3.42;;;1.45;;
26391;SDS011;14572;43.120;1.178;2023-11-19T01:04:53;7.07;;;1.42;;
26391;SDS011;14572;43.120;1.178;2023-11-19T01:07:21;3.33;;;1.60;;
26391;SDS011;14572;43.120;1.178;2023-11-19T01:09:49;4.13;;;1.60;;
26391;SDS011;14572;43.120;1.178;2023-11-19T01:12:17;3.28;;;1.23;;
26391;SDS011;14572;43.120;1.178;2023-11-19T01:14:43;5.00;;;1.50;;
26391;SDS011;14572;43.120;1.178;2023-11-19T01:17:12;8.45;;;1.40;;
26391;SDS011;14572;43.120;1.178;2023-11-19T01:19:39;3.85;;;1.33;;
26391;SDS011;14572;43.120;1.178;2023-11-19T01:22:06;6.03;;;1.55;;
26391;SDS011;14572;43.120;1.178;2023-11-19T01:24:33;4.03;;;1.60;;
26391;SDS011;14572;43.120;1.178;2023-11-19T01:27:00;5.28;;;1.58;;
26391;SDS011;14572;43.120;1.178;2023-11-19T01:29:27;5.03;;;1.70;;
26391;SDS011;14572;43.120;1.178;2023-11-19T01:31:54;3.05;;;1.65;;
26391;SDS011;14572;43.120;1.178;2023-11-19T01:34:23;4.60;;;1.67;;
26391;SDS011;14572;43.120;1.178;2023-11-19T01:36:49;4.30;;;1.60;;
26391;SDS011;14572;43.120;1.178;2023-11-19T01:39:16;2.53;;;1.23;;
26391;SDS011;14572;43.120;1.178;2023-11-19T01:41:45;2.75;;;1.58;;
26391;SDS011;14572;43.120;1.178;2023-11-19T01:44:12;3.92;;;1.70;;
26391;SDS011;14572;43.120;1.178;2023-11-19T01:46:40;10.25;;;1.50;;
26391;SDS011;14572;43.120;1.178;2023-11-19T01:49:07;3.03;;;1.52;;
26391;SDS011;14572;43.120;1.178;2023-11-19T01:51:38;3.83;;;1.60;;
26391;SDS011;14572;43.120;1.178;2023-11-19T01:54:05;3.08;;;1.70;;
26391;SDS011;14572;43.120;1.178;2023-11-19T01:56:34;2.30;;;1.52;;
26391;SDS011;14572;43.120;1.178;2023-11-19T01:59:01;6.57;;;1.40;;
26391;SDS011;14572;43.120;1.178;2023-11-19T02:01:29;4.47;;;1.65;;
26391;SDS011;14572;43.120;1.178;2023-11-19T02:03:57;4.72;;;1.17;;
26391;SDS011;14572;43.120;1.178;2023-11-19T02:06:25;6.45;;;1.42;;
26391;SDS011;14572;43.120;1.178;2023-11-19T02:08:54;6.40;;;1.33;;
26391;SDS011;14572;43.120;1.178;2023-11-19T02:11:21;4.07;;;2.13;;
26391;SDS011;14572;43.120;1.178;2023-11-19T02:13:48;1.45;;;1.00;;
26391;SDS011;14572;43.120;1.178;2023-11-19T02:16:15;5.03;;;1.33;;
26391;SDS011;14572;43.120;1.178;2023-11-19T02:18:42;4.10;;;1.42;;
26391;SDS011;14572;43.120;1.178;2023-11-19T02:21:09;2.40;;;1.30;;
26391;SDS011;14572;43.120;1.178;2023-11-19T02:23:36;3.88;;;1.38;;
26391;SDS011;14572;43.120;1.178;2023-11-19T02:26:09;5.60;;;1.33;;
26391;SDS011;14572;43.120;1.178;2023-11-19T02:28:42;2.35;;;1.10;;
26391;SDS011;14572;43.120;1.178;2023-11-19T02:31:09;3.05;;;1.23;;
26391;SDS011;14572;43.120;1.178;2023-11-19T02:33:36;3.63;;;1.30;;
26391;SDS011;14572;43.120;1.178;2023-11-19T02:36:04;5.18;;;2.38;;
26391;SDS011;14572;43.120;1.178;2023-11-19T02:38:32;3.90;;;1.00;;
26391;SDS011;14572;43.120;1.178;2023-11-19T02:41:00;3.35;;;1.08;;
26391;SDS011;14572;43.120;1.178;2023-11-19T02:43:30;5.13;;;1.23;;
26391;SDS011;14572;43.120;1.178;2023-11-19T02:46:00;4.32;;;1.40;;
26391;SDS011;14572;43.120;1.178;2023-11-19T02:48:27;5.03;;;1.10;;
26391;SDS011;14572;43.120;1.178;2023-11-19T02:50:55;4.38;;;1.08;;
26391;SDS011;14572;43.120;1.178;2023-11-19T02:53:23;7.20;;;1.10;;
26391;SDS011;14572;43.120;1.178;2023-11-19T02:55:52;3.10;;;1.20;;
26391;SDS011;14572;43.120;1.178;2023-11-19T02:58:26;1.88;;;1.15;;
26391;SDS011;14572;43.120;1.178;2023-11-19T03:00:53;5.63;;;0.98;;
26391;SDS011;14572;43.120;1.178;2023-11-19T03:03:24;4.75;;;1.50;;
26391;SDS011;14572;43.120;1.178;2023-11-19T03:05:56;2.60;;;1.17;;
26391;SDS011;14572;43.120;1.178;2023-11-19T03:08:23;4.70;;;1.27;;
26391;SDS011;14572;43.120;1.178;2023-11-19T03:10:50;3.70;;;1.20;;
26391;SDS011;14572;43.120;1.178;2023-11-19T03:13:17;2.72;;;1.08;;
26391;SDS011;14572;43.120;1.178;2023-11-19T03:15:44;5.38;;;1.55;;
26391;SDS011;14572;43.120;1.178;2023-11-19T03:18:11;2.85;;;1.33;;
26391;SDS011;14572;43.120;1.178;2023-11-19T03:20:40;4.40;;;1.23;;
26391;SDS011;14572;43.120;1.178;2023-11-19T03:23:06;4.07;;;1.20;;
26391;SDS011;14572;43.120;1.178;2023-11-19T03:25:33;3.17;;;1.10;;
26391;SDS011;14572;43.120;1.178;2023-11-19T03:28:01;2.05;;;1.17;;
26391;SDS011;14572;43.120;1.178;2023-11-19T03:30:29;3.63;;;1.13;;
26391;SDS011;14572;43.120;1.178;2023-11-19T03:32:57;1.65;;;1.00;;
26391;SDS011;14572;43.120;1.178;2023-11-19T03:35:24;2.53;;;1.30;;
26391;SDS011;14572;43.120;1.178;2023-11-19T03:37:54;3.90;;;1.08;;
26391;SDS011;14572;43.120;1.178;2023-11-19T03:40:21;2.35;;;1.13;;
26391;SDS011;14572;43.120;1.178;2023-11-19T03:42:50;6.68;;;1.50;;
26391;SDS011;14572;43.120;1.178;2023-11-19T03:45:17;1.67;;;1.08;;
26391;SDS011;14572;43.120;1.178;2023-11-19T03:47:44;3.25;;;1.50;;
26391;SDS011;14572;43.120;1.178;2023-11-19T03:50:11;3.45;;;1.23;;
26391;SDS011;14572;43.120;1.178;2023-11-19T03:52:40;3.47;;;1.00;;
26391;SDS011;14572;43.120;1.178;2023-11-19T03:55:10;4.00;;;1.10;;
26391;SDS011;14572;43.120;1.178;2023-11-19T03:57:37;1.77;;;1.00;;
26391;SDS011;14572;43.120;1.178;2023-11-19T04:00:06;1.63;;;0.88;;
26391;SDS011;14572;43.120;1.178;2023-11-19T04:02:35;2.08;;;1.23;;
26391;SDS011;14572;43.120;1.178;2023-11-19T04:05:02;1.77;;;1.20;;
26391;SDS011;14572;43.120;1.178;2023-11-19T04:07:30;7.50;;;1.40;;
26391;SDS011;14572;43.120;1.178;2023-11-19T04:09:58;7.82;;;1.00;;
26391;SDS011;14572;43.120;1.178;2023-11-19T04:12:26;4.35;;;1.17;;
26391;SDS011;14572;43.120;1.178;2023-11-19T04:14:53;2.53;;;1.20;;
26391;SDS011;14572;43.120;1.178;2023-11-19T04:17:21;1.77;;;0.90;;
26391;SDS011;14572;43.120;1.178;2023-11-19T04:19:48;6.25;;;1.30;;
26391;SDS011;14572;43.120;1.178;2023-11-19T04:22:15;6.13;;;1.15;;
26391;SDS011;14572;43.120;1.178;2023-11-19T04:24:42;2.13;;;1.10;;
26391;SDS011;14572;43.120;1.178;2023-11-19T04:27:10;3.22;;;1.00;;
26391;SDS011;14572;43.120;1.178;2023-11-19T04:29:39;4.38;;;1.02;;
26391;SDS011;14572;43.120;1.178;2023-11-19T04:32:06;5.25;;;1.00;;
26391;SDS011;14572;43.120;1.178;2023-11-19T04:34:34;5.90;;;1.13;;
26391;SDS011;14572;43.120;1.178;2023-11-19T04:37:02;3.20;;;1.05;;
26391;SDS011;14572;43.120;1.178;2023-11-19T04:39:30;3.90;;;1.20;;
26391;SDS011;14572;43.120;1.178;2023-11-19T04:41:57;2.15;;;1.00;;
26391;SDS011;14572;43.120;1.178;2023-11-19T04:44:24;6.70;;;1.33;;
26391;SDS011;14572;43.120;1.178;2023-11-19T04:46:53;2.22;;;1.10;;
26391;SDS011;14572;43.120;1.178;2023-11-19T04:49:20;2.00;;;1.20;;
26391;SDS011;14572;43.120;1.178;2023-11-19T04:51:47;8.02;;;1.17;;
26391;SDS011;14572;43.120;1.178;2023-11-19T04:54:14;1.73;;;1.15;;
26391;SDS011;14572;43.120;1.178;2023-11-19T04:56:44;3.28;;;1.10;;
26391;SDS011;14572;43.120;1.178;2023-11-19T04:59:11;2.78;;;1.15;;
26391;SDS011;14572;43.120;1.178;2023-11-19T05:01:38;2.85;;;1.60;;
26391;SDS011;14572;43.120;1.178;2023-11-19T05:04:07;4.57;;;1.40;;
26391;SDS011;14572;43.120;1.178;2023-11-19T05:06:34;2.88;;;1.00;;
26391;SDS011;14572;43.120;1.178;2023-11-19T05:09:03;1.40;;;0.90;;
26391;SDS011;14572;43.120;1.178;2023-11-19T05:11:32;2.53;;;1.33;;
26391;SDS011;14572;43.120;1.178;2023-11-19T05:13:59;4.07;;;1.25;;
26391;SDS011;14572;43.120;1.178;2023-11-19T05:16:26;5.78;;;1.30;;
26391;SDS011;14572;43.120;1.178;2023-11-19T05:18:53;1.75;;;1.13;;
26391;SDS011;14572;43.120;1.178;2023-11-19T05:21:22;2.08;;;1.10;;
26391;SDS011;14572;43.120;1.178;2023-11-19T05:23:49;3.15;;;1.48;;
26391;SDS011;14572;43.120;1.178;2023-11-19T05:26:19;1.58;;;0.98;;
26391;SDS011;14572;43.120;1.178;2023-11-19T05:28:47;9.32;;;1.50;;
26391;SDS011;14572;43.120;1.178;2023-11-19T05:31:15;2.50;;;1.30;;
26391;SDS011;14572;43.120;1.178;2023-11-19T05:33:43;2.30;;;1.30;;
26391;SDS011;14572;43.120;1.178;2023-11-19T05:36:10;4.15;;;1.40;;
26391;SDS011;14572;43.120;1.178;2023-11-19T05:38:39;2.35;;;1.30;;
26391;SDS011;14572;43.120;1.178;2023-11-19T05:41:07;1.92;;;1.38;;
26391;SDS011;14572;43.120;1.178;2023-11-19T05:43:34;1.85;;;1.17;;
26391;SDS011;14572;43.120;1.178;2023-11-19T05:46:01;2.45;;;1.27;;
26391;SDS011;14572;43.120;1.178;2023-11-19T05:48:28;2.03;;;1.30;;
26391;SDS011;14572;43.120;1.178;2023-11-19T05:50:55;5.22;;;1.13;;
26391;SDS011;14572;43.120;1.178;2023-11-19T05:53:22;4.43;;;1.10;;
26391;SDS011;14572;43.120;1.178;2023-11-19T05:55:51;1.80;;;1.20;;
26391;SDS011;14572;43.120;1.178;2023-11-19T05:58:23;5.93;;;1.02;;
26391;SDS011;14572;43.120;1.178;2023-11-19T06:00:51;1.40;;;1.10;;
26391;SDS011;14572;43.120;1.178;2023-11-19T06:03:18;3.42;;;1.02;;
26391;SDS011;14572;43.120;1.178;2023-11-19T06:05:46;2.92;;;1.20;;
26391;SDS011;14572;43.120;1.178;2023-11-19T06:08:13;1.45;;;1.10;;
26391;SDS011;14572;43.120;1.178;2023-11-19T06:10:41;2.20;;;1.10;;
26391;SDS011;14572;43.120;1.178;2023-11-19T06:13:10;3.17;;;1.17;;
26391;SDS011;14572;43.120;1.178;2023-11-19T06:15:37;2.83;;;1.00;;
26391;SDS011;14572;43.120;1.178;2023-11-19T06:18:04;5.95;;;2.63;;
26391;SDS011;14572;43.120;1.178;2023-11-19T06:20:32;1.92;;;1.13;;
26391;SDS011;14572;43.120;1.178;2023-11-19T06:22:59;2.55;;;1.20;;
26391;SDS011;14572;43.120;1.178;2023-11-19T06:25:26;1.55;;;0.88;;
26391;SDS011;14572;43.120;1.178;2023-11-19T06:27:54;3.17;;;1.08;;
26391;SDS011;14572;43.120;1.178;2023-11-19T06:30:23;2.42;;;1.17;;
26391;SDS011;14572;43.120;1.178;2023-11-19T06:32:51;3.65;;;1.30;;
26391;SDS011;14572;43.120;1.178;2023-11-19T06:35:18;3.90;;;1.23;;
26391;SDS011;14572;43.120;1.178;2023-11-19T06:37:45;3.15;;;1.33;;
26391;SDS011;14572;43.120;1.178;2023-11-19T06:40:12;7.13;;;1.42;;
26391;SDS011;14572;43.120;1.178;2023-11-19T06:42:41;1.88;;;0.95;;
26391;SDS011;14572;43.120;1.178;2023-11-19T06:45:08;2.03;;;1.15;;
26391;SDS011;14572;43.120;1.178;2023-11-19T06:47:37;3.90;;;1.10;;
26391;SDS011;14572;43.120;1.178;2023-11-19T06:50:04;4.63;;;1.17;;
26391;SDS011;14572;43.120;1.178;2023-11-19T06:52:33;2.78;;;1.10;;
26391;SDS011;14572;43.120;1.178;2023-11-19T06:55:00;3.67;;;1.23;;
26391;SDS011;14572;43.120;1.178;2023-11-19T06:57:27;2.65;;;1.15;;
26391;SDS011;14572;43.120;1.178;2023-11-19T06:59:56;2.00;;;1.05;;
26391;SDS011;14572;43.120;1.178;2023-11-19T07:02:24;3.95;;;1.10;;
26391;SDS011;14572;43.120;1.178;2023-11-19T07:04:52;3.08;;;0.93;;
26391;SDS011;14572;43.120;1.178;2023-11-19T07:07:19;1.52;;;1.00;;
26391;SDS011;14572;43.120;1.178;2023-11-19T07:09:46;2.35;;;0.85;;
26391;SDS011;14572;43.120;1.178;2023-11-19T07:12:13;1.15;;;0.88;;
26391;SDS011;14572;43.120;1.178;2023-11-19T07:14:40;3.00;;;0.98;;
26391;SDS011;14572;43.120;1.178;2023-11-19T07:17:08;2.65;;;1.08;;
26391;SDS011;14572;43.120;1.178;2023-11-19T07:19:36;2.13;;;0.77;;
26391;SDS011;14572;43.120;1.178;2023-11-19T07:22:06;2.00;;;1.20;;
26391;SDS011;14572;43.120;1.178;2023-11-19T07:24:33;3.00;;;1.02;;
26391;SDS011;14572;43.120;1.178;2023-11-19T07:27:00;2.83;;;0.98;;
26391;SDS011;14572;43.120;1.178;2023-11-19T07:29:29;4.65;;;1.05;;
26391;SDS011;14572;43.120;1.178;2023-11-19T07:31:56;1.27;;;1.00;;
26391;SDS011;14572;43.120;1.178;2023-11-19T07:34:24;1.90;;;1.13;;
26391;SDS011;14572;43.120;1.178;2023-11-19T07:36:50;2.17;;;1.10;;
26391;SDS011;14572;43.120;1.178;2023-11-19T07:39:19;3.03;;;0.93;;
26391;SDS011;14572;43.120;1.178;2023-11-19T07:41:46;1.52;;;0.90;;
26391;SDS011;14572;43.120;1.178;2023-11-19T07:44:13;1.70;;;1.00;;
26391;SDS011;14572;43.120;1.178;2023-11-19T07:46:40;2.00;;;1.10;;
26391;SDS011;14572;43.120;1.178;2023-11-19T07:49:08;1.95;;;1.00;;
26391;SDS011;14572;43.120;1.178;2023-11-19T07:51:35;8.45;;;1.23;;
26391;SDS011;14572;43.120;1.178;2023-11-19T07:54:02;3.47;;;1.20;;
26391;SDS011;14572;43.120;1.178;2023-11-19T07:56:32;6.18;;;1.00;;
26391;SDS011;14572;43.120;1.178;2023-11-19T07:59:01;2.85;;;1.10;;
26391;SDS011;14572;43.120;1.178;2023-11-19T08:01:28;2.75;;;1.05;;
26391;SDS011;14572;43.120;1.178;2023-11-19T08:03:55;2.95;;;1.10;;
26391;SDS011;14572;43.120;1.178;2023-11-19T08:06:22;4.95;;;1.20;;
26391;SDS011;14572;43.120;1.178;2023-11-19T08:08:49;2.78;;;0.95;;
26391;SDS011;14572;43.120;1.178;2023-11-19T08:11:17;3.30;;;0.80;;
26391;SDS011;14572;43.120;1.178;2023-11-19T08:13:46;1.90;;;0.80;;
26391;SDS011;14572;43.120;1.178;2023-11-19T08:16:13;2.30;;;1.13;;
26391;SDS011;14572;43.120;1.178;2023-11-19T08:18:41;4.75;;;1.30;;
26391;SDS011;14572;43.120;1.178;2023-11-19T08:21:09;3.65;;;1.10;;
26391;SDS011;14572;43.120;1.178;2023-11-19T08:23:36;2.17;;;0.90;;
26391;SDS011;14572;43.120;1.178;2023-11-19T08:26:03;3.55;;;1.20;;
26391;SDS011;14572;43.120;1.178;2023-11-19T08:28:31;2.05;;;0.90;;
26391;SDS011;14572;43.120;1.178;2023-11-19T08:31:01;1.20;;;0.90;;
26391;SDS011;14572;43.120;1.178;2023-11-19T08:33:29;1.35;;;0.88;;
26391;SDS011;14572;43.120;1.178;2023-11-19T08:35:56;2.85;;;0.82;;
26391;SDS011;14572;43.120;1.178;2023-11-19T08:38:23;1.50;;;0.93;;
26391;SDS011;14572;43.120;1.178;2023-11-19T08:40:51;3.40;;;0.93;;
26391;SDS011;14572;43.120;1.178;2023-11-19T08:43:18;1.45;;;0.98;;
26391;SDS011;14572;43.120;1.178;2023-11-19T08:45:45;2.80;;;1.00;;
26391;SDS011;14572;43.120;1.178;2023-11-19T08:48:14;1.83;;;0.88;;
26391;SDS011;14572;43.120;1.178;2023-11-19T08:50:41;3.55;;;1.90;;
26391;SDS011;14572;43.120;1.178;2023-11-19T08:53:08;3.05;;;1.50;;
26391;SDS011;14572;43.120;1.178;2023-11-19T08:55:35;5.30;;;1.65;;
26391;SDS011;14572;43.120;1.178;2023-11-19T08:58:02;2.35;;;1.10;;
26391;SDS011;14572;43.120;1.178;2023-11-19T09:00:30;9.35;;;1.50;;
26391;SDS011;14572;43.120;1.178;2023-11-19T09:02:58;6.57;;;1.58;;
26391;SDS011;14572;43.120;1.178;2023-11-19T09:05:26;7.88;;;1.77;;
26391;SDS011;14572;43.120;1.178;2023-11-19T09:07:54;4.95;;;1.27;;
26391;SDS011;14572;43.120;1.178;2023-11-19T09:10:21;43.60;;;22.17;;
26391;SDS011;14572;43.120;1.178;2023-11-19T09:12:48;292.35;;;134.43;;
26391;SDS011;14572;43.120;1.178;2023-11-19T09:15:15;192.30;;;82.97;;
26391;SDS011;14572;43.120;1.178;2023-11-19T09:17:42;57.55;;;27.83;;
26391;SDS011;14572;43.120;1.178;2023-11-19T09:20:10;35.28;;;14.88;;
26391;SDS011;14572;43.120;1.178;2023-11-19T09:22:42;26.75;;;13.20;;
26391;SDS011;14572;43.120;1.178;2023-11-19T09:25:09;40.00;;;18.30;;
26391;SDS011;14572;43.120;1.178;2023-11-19T09:27:36;46.88;;;19.45;;
26391;SDS011;14572;43.120;1.178;2023-11-19T09:30:03;25.75;;;12.70;;
26391;SDS011;14572;43.120;1.178;2023-11-19T09:32:31;14.88;;;7.13;;
26391;SDS011;14572;43.120;1.178;2023-11-19T09:34:58;11.40;;;6.38;;
26391;SDS011;14572;43.120;1.178;2023-11-19T09:37:25;8.13;;;4.45;;
26391;SDS011;14572;43.120;1.178;2023-11-19T09:39:54;16.10;;;6.97;;
26391;SDS011;14572;43.120;1.178;2023-11-19T09:42:21;15.52;;;5.95;;
26391;SDS011;14572;43.120;1.178;2023-11-19T09:44:50;12.20;;;5.95;;
26391;SDS011;14572;43.120;1.178;2023-11-19T09:47:18;11.38;;;4.70;;
26391;SDS011;14572;43.120;1.178;2023-11-19T09:49:46;5.70;;;3.20;;
26391;SDS011;14572;43.120;1.178;2023-11-19T09:52:13;7.22;;;3.83;;
26391;SDS011;14572;43.120;1.178;2023-11-19T09:54:40;8.93;;;3.83;;
26391;SDS011;14572;43.120;1.178;2023-11-19T09:57:09;5.63;;;3.80;;
26391;SDS011;14572;43.120;1.178;2023-11-19T09:59:37;7.35;;;3.65;;
26391;SDS011;14572;43.120;1.178;2023-11-19T10:02:06;5.82;;;3.40;;
26391;SDS011;14572;43.120;1.178;2023-11-19T10:04:34;6.32;;;3.95;;
26391;SDS011;14572;43.120;1.178;2023-11-19T10:07:02;8.23;;;4.20;;
26391;SDS011;14572;43.120;1.178;2023-11-19T10:09:30;6.80;;;4.10;;
26391;SDS011;14572;43.120;1.178;2023-11-19T10:11:57;11.70;;;5.80;;
26391;SDS011;14572;43.120;1.178;2023-11-19T10:14:25;8.75;;;4.75;;
26391;SDS011;14572;43.120;1.178;2023-11-19T10:16:53;7.47;;;3.88;;
26391;SDS011;14572;43.120;1.178;2023-11-19T10:19:21;3.97;;;2.45;;
26391;SDS011;14572;43.120;1.178;2023-11-19T10:21:48;5.50;;;2.10;;
26391;SDS011;14572;43.120;1.178;2023-11-19T10:24:16;2.95;;;2.08;;
26391;SDS011;14572;43.120;1.178;2023-11-19T10:26:43;1.77;;;1.42;;
26391;SDS011;14572;43.120;1.178;2023-11-19T10:29:12;3.25;;;1.80;;
26391;SDS011;14572;43.120;1.178;2023-11-19T10:31:41;3.17;;;1.40;;
26391;SDS011;14572;43.120;1.178;2023-11-19T10:34:24;4.28;;;1.50;;
26391;SDS011;14572;43.120;1.178;2023-11-19T10:36:51;5.75;;;1.67;;
26391;SDS011;14572;43.120;1.178;2023-11-19T10:39:18;2.78;;;1.33;;
26391;SDS011;14572;43.120;1.178;2023-11-19T10:41:46;3.72;;;1.33;;
26391;SDS011;14572;43.120;1.178;2023-11-19T10:44:26;2.20;;;1.25;;
26391;SDS011;14572;43.120;1.178;2023-11-19T10:47:00;4.30;;;1.50;;
26391;SDS011;14572;43.120;1.178;2023-11-19T10:49:27;3.17;;;1.30;;
26391;SDS011;14572;43.120;1.178;2023-11-19T10:51:54;2.67;;;1.42;;
26391;SDS011;14572;43.120;1.178;2023-11-19T10:54:23;2.53;;;1.50;;
26391;SDS011;14572;43.120;1.178;2023-11-19T10:56:52;3.25;;;1.55;;
26391;SDS011;14572;43.120;1.178;2023-11-19T10:59:21;2.30;;;1.40;;
26391;SDS011;14572;43.120;1.178;2023-11-19T11:01:50;2.25;;;1.33;;
26391;SDS011;14572;43.120;1.178;2023-11-19T11:04:23;3.47;;;1.55;;
26391;SDS011;14572;43.120;1.178;2023-11-19T11:06:52;3.90;;;2.05;;
26391;SDS011;14572;43.120;1.178;2023-11-19T11:09:21;4.13;;;2.20;;
26391;SDS011;14572;43.120;1.178;2023-11-19T11:11:48;3.53;;;1.80;;
26391;SDS011;14572;43.120;1.178;2023-11-19T11:14:17;3.88;;;2.00;;
26391;SDS011;14572;43.120;1.178;2023-11-19T11:16:45;3.90;;;2.03;;
26391;SDS011;14572;43.120;1.178;2023-11-19T11:19:13;4.10;;;1.83;;
26391;SDS011;14572;43.120;1.178;2023-11-19T11:21:42;3.47;;;2.05;;
26391;SDS011;14572;43.120;1.178;2023-11-19T11:24:28;3.67;;;2.03;;
26391;SDS011;14572;43.120;1.178;2023-11-19T11:27:16;6.00;;;2.30;;
26391;SDS011;14572;43.120;1.178;2023-11-19T11:29:55;6.22;;;2.30;;
26391;SDS011;14572;43.120;1.178;2023-11-19T11:32:29;6.28;;;2.25;;
26391;SDS011;14572;43.120;1.178;2023-11-19T11:37:53;4.45;;;2.03;;
26391;SDS011;14572;43.120;1.178;2023-11-19T11:40:24;5.72;;;1.98;;
26391;SDS011;14572;43.120;1.178;2023-11-19T11:42:51;4.22;;;1.63;;
26391;SDS011;14572;43.120;1.178;2023-11-19T11:45:19;3.03;;;1.60;;
26391;SDS011;14572;43.120;1.178;2023-11-19T11:48:14;3.33;;;1.65;;
26391;SDS011;14572;43.120;1.178;2023-11-19T11:50:52;3.55;;;1.95;;
26391;SDS011;14572;43.120;1.178;2023-11-19T11:53:23;2.45;;;1.55;;
26391;SDS011;14572;43.120;1.178;2023-11-19T11:55:56;7.13;;;1.65;;
26391;SDS011;14572;43.120;1.178;2023-11-19T11:58:35;2.67;;;1.40;;
26391;SDS011;14572;43.120;1.178;2023-11-19T12:01:04;2.65;;;1.40;;
26391;SDS011;14572;43.120;1.178;2023-11-19T12:03:35;2.35;;;1.27;;
26391;SDS011;14572;43.120;1.178;2023-11-19T12:06:04;2.83;;;1.20;;
26391;SDS011;14572;43.120;1.178;2023-11-19T12:08:35;3.42;;;1.55;;
26391;SDS011;14572;43.120;1.178;2023-11-19T12:11:02;2.08;;;1.38;;
26391;SDS011;14572;43.120;1.178;2023-11-19T12:13:42;2.38;;;1.38;;
26391;SDS011;14572;43.120;1.178;2023-11-19T12:16:12;3.88;;;1.30;;
26391;SDS011;14572;43.120;1.178;2023-11-19T12:18:40;3.38;;;1.20;;
26391;SDS011;14572;43.120;1.178;2023-11-19T12:21:11;2.30;;;1.20;;
26391;SDS011;14572;43.120;1.178;2023-11-19T12:23:45;3.28;;;1.63;;
26391;SDS011;14572;43.120;1.178;2023-11-19T12:26:34;5.82;;;1.40;;
26391;SDS011;14572;43.120;1.178;2023-11-19T12:29:04;2.50;;;1.20;;
26391;SDS011;14572;43.120;1.178;2023-11-19T12:31:32;2.53;;;1.20;;
26391;SDS011;14572;43.120;1.178;2023-11-19T12:34:08;2.38;;;1.10;;
26391;SDS011;14572;43.120;1.178;2023-11-19T12:36:37;2.13;;;0.93;;
26391;SDS011;14572;43.120;1.178;2023-11-19T12:39:11;1.88;;;1.08;;
26391;SDS011;14572;43.120;1.178;2023-11-19T12:41:49;2.05;;;1.23;;
26391;SDS011;14572;43.120;1.178;2023-11-19T12:44:17;2.45;;;1.20;;
26391;SDS011;14572;43.120;1.178;2023-11-19T12:46:44;2.08;;;1.02;;
26391;SDS011;14572;43.120;1.178;2023-11-19T12:49:11;3.28;;;1.00;;
26391;SDS011;14572;43.120;1.178;2023-11-19T12:51:39;3.78;;;1.00;;
26391;SDS011;14572;43.120;1.178;2023-11-19T12:54:06;2.28;;;0.95;;
26391;SDS011;14572;43.120;1.178;2023-11-19T12:56:34;1.33;;;0.88;;
26391;SDS011;14572;43.120;1.178;2023-11-19T12:59:15;1.50;;;0.75;;
26391;SDS011;14572;43.120;1.178;2023-11-19T13:01:53;1.45;;;0.85;;
26391;SDS011;14572;43.120;1.178;2023-11-19T13:04:20;2.80;;;0.88;;
26391;SDS011;14572;43.120;1.178;2023-11-19T13:06:47;1.30;;;0.85;;
26391;SDS011;14572;43.120;1.178;2023-11-19T13:09:21;1.52;;;0.60;;
26391;SDS011;14572;43.120;1.178;2023-11-19T13:11:51;2.17;;;0.95;;
26391;SDS011;14572;43.120;1.178;2023-11-19T13:14:18;2.28;;;0.88;;
26391;SDS011;14572;43.120;1.178;2023-11-19T13:16:45;1.30;;;0.60;;
26391;SDS011;14572;43.120;1.178;2023-11-19T13:19:13;2.38;;;0.93;;
26391;SDS011;14572;43.120;1.178;2023-11-19T13:21:41;0.90;;;0.50;;
26391;SDS011;14572;43.120;1.178;2023-11-19T13:24:11;1.70;;;0.60;;
26391;SDS011;14572;43.120;1.178;2023-11-19T13:26:38;2.75;;;1.00;;
26391;SDS011;14572;43.120;1.178;2023-11-19T13:29:06;3.25;;;0.70;;
26391;SDS011;14572;43.120;1.178;2023-11-19T13:31:35;0.80;;;0.60;;
26391;SDS011;14572;43.120;1.178;2023-11-19T13:34:02;1.55;;;0.55;;
26391;SDS011;14572;43.120;1.178;2023-11-19T13:36:30;1.33;;;0.68;;
26391;SDS011;14572;43.120;1.178;2023-11-19T13:38:57;2.78;;;0.50;;
26391;SDS011;14572;43.120;1.178;2023-11-19T13:41:24;2.28;;;0.50;;
26391;SDS011;14572;43.120;1.178;2023-11-19T13:43:51;0.82;;;0.52;;
26391;SDS011;14572;43.120;1.178;2023-11-19T13:46:20;2.25;;;0.28;;
26391;SDS011;14572;43.120;1.178;2023-11-19T13:48:47;0.70;;;0.50;;
26391;SDS011;14572;43.120;1.178;2023-11-19T13:51:15;2.67;;;0.50;;
26391;SDS011;14572;43.120;1.178;2023-11-19T13:53:43;1.58;;;0.38;;
26391;SDS011;14572;43.120;1.178;2023-11-19T13:56:10;1.13;;;0.43;;
26391;SDS011;14572;43.120;1.178;2023-11-19T13:58:37;0.60;;;0.45;;
26391;SDS011;14572;43.120;1.178;2023-11-19T14:01:05;3.92;;;0.63;;
26391;SDS011;14572;43.120;1.178;2023-11-19T14:03:34;0.90;;;0.40;;
26391;SDS011;14572;43.120;1.178;2023-11-19T14:06:01;2.47;;;0.50;;
26391;SDS011;14572;43.120;1.178;2023-11-19T14:08:29;3.15;;;0.50;;
26391;SDS011;14572;43.120;1.178;2023-11-19T14:10:56;0.85;;;0.50;;
26391;SDS011;14572;43.120;1.178;2023-11-19T14:13:23;1.45;;;0.50;;
26391;SDS011;14572;43.120;1.178;2023-11-19T14:15:50;0.93;;;0.70;;
26391;SDS011;14572;43.120;1.178;2023-11-19T14:18:17;1.98;;;0.60;;
26391;SDS011;14572;43.120;1.178;2023-11-19T14:20:46;1.65;;;0.52;;
26391;SDS011;14572;43.120;1.178;2023-11-19T14:23:13;4.20;;;0.65;;
26391;SDS011;14572;43.120;1.178;2023-11-19T14:25:40;1.20;;;0.57;;
26391;SDS011;14572;43.120;1.178;2023-11-19T14:28:07;1.35;;;0.43;;
26391;SDS011;14572;43.120;1.178;2023-11-19T14:30:34;8.77;;;0.50;;
26391;SDS011;14572;43.120;1.178;2023-11-19T14:33:01;2.33;;;0.50;;
26391;SDS011;14572;43.120;1.178;2023-11-19T14:35:28;2.53;;;0.50;;
26391;SDS011;14572;43.120;1.178;2023-11-19T14:37:59;2.55;;;0.50;;
26391;SDS011;14572;43.120;1.178;2023-11-19T14:40:30;3.60;;;0.55;;
26391;SDS011;14572;43.120;1.178;2023-11-19T14:42:57;0.98;;;0.30;;
26391;SDS011;14572;43.120;1.178;2023-11-19T14:45:24;1.77;;;0.60;;
26391;SDS011;14572;43.120;1.178;2023-11-19T14:47:51;1.50;;;0.40;;
26391;SDS011;14572;43.120;1.178;2023-11-19T14:50:19;3.15;;;0.30;;
26391;SDS011;14572;43.120;1.178;2023-11-19T14:52:46;1.35;;;0.50;;
26391;SDS011;14572;43.120;1.178;2023-11-19T14:55:14;1.83;;;0.60;;